Time;durP1;ratioP1;P1;durP2;ratioP2;P2;SDS_P1;SDS_P2;PMS_P1;PMS_P2;Temp;Humidity;BMP_temperature;BMP_pressure;BME280_temperature;BME280_humidity;BME280_pressure;Samples;Min_cycle;Max_cycle;Signal;HPM_P1;HPM_P2
2023/01/05 00:02:00;;;;;;;12.45;2.50;;;14.80;52.70;;;;;;5048922;28;20052;-47
2023/01/05 00:04:27;;;;;;;18.67;3.78;;;14.70;52.70;;;;;;5053499;28;20067;-47
2023/01/05 00:06:54;;;;;;;17.45;3.20;;;14.70;52.70;;;;;;5055721;28;20048;-45
2023/01/05 00:09:21;;;;;;;17.63;3.45;;;14.70;52.60;;;;;;5047546;28;20085;-44
2023/01/05 00:22:57;;;;;;;19.63;2.60;;;14.70;52.90;;;;;;5041279;28;20512;-42
2023/01/05 00:25:26;;;;;;;16.17;3.10;;;14.70;52.90;;;;;;5034429;28;20049;-47
2023/01/05 00:27:55;;;;;;;15.02;2.78;;;14.60;52.90;;;;;;5035749;28;20048;-47
2023/01/05 00:30:24;;;;;;;19.17;3.03;;;14.60;53.00;;;;;;5040718;28;20071;-45
2023/01/05 00:32:53;;;;;;;17.17;3.03;;;14.70;53.10;;;;;;5051099;28;20049;-50
2023/01/05 00:35:22;;;;;;;16.05;2.67;;;14.60;53.20;;;;;;5039447;28;20541;-47
2023/01/05 00:37:50;;;;;;;20.48;3.55;;;14.60;53.20;;;;;;5040521;28;20042;-45
2023/01/05 00:40:19;;;;;;;17.02;3.70;;;14.70;53.30;;;;;;5044133;28;20064;-47
2023/01/05 00:42:47;;;;;;;21.60;3.42;;;14.70;53.40;;;;;;5040414;28;20049;-45
2023/01/05 00:45:16;;;;;;;16.13;2.83;;;14.60;53.30;;;;;;5041977;28;20057;-48
2023/01/05 00:47:44;;;;;;;20.30;3.08;;;14.70;53.40;;;;;;5037229;28;20053;-45
2023/01/05 00:50:14;;;;;;;17.52;2.95;;;14.70;53.40;;;;;;5048886;28;20068;-44
2023/01/05 00:52:42;;;;;;;15.20;2.50;;;14.70;53.50;;;;;;5047975;28;20049;-46
2023/01/05 00:55:09;;;;;;;18.05;3.03;;;14.70;53.50;;;;;;5041102;28;20052;-47
2023/01/05 00:57:37;;;;;;;21.08;3.10;;;14.70;53.50;;;;;;5037216;28;20504;-47
2023/01/05 01:00:05;;;;;;;20.70;3.38;;;14.70;53.50;;;;;;5045479;28;20060;-48
2023/01/05 01:02:33;;;;;;;16.95;2.95;;;14.70;53.40;;;;;;5050520;28;20057;-47
2023/01/05 01:05:00;;;;;;;14.90;2.55;;;14.70;53.50;;;;;;5050694;28;20053;-48
2023/01/05 01:07:29;;;;;;;13.40;3.00;;;14.70;53.50;;;;;;5048428;28;20049;-45
2023/01/05 01:09:56;;;;;;;13.73;3.38;;;14.60;53.40;;;;;;5037535;28;20065;-49
2023/01/05 01:12:23;;;;;;;19.58;3.47;;;14.70;53.40;;;;;;5035700;28;20485;-48
2023/01/05 01:14:50;;;;;;;15.02;3.05;;;14.60;53.20;;;;;;5041546;28;20052;-46
2023/01/05 01:17:18;;;;;;;20.33;2.95;;;14.60;53.30;;;;;;5047619;28;20056;-46
2023/01/05 01:19:45;;;;;;;20.60;3.65;;;14.60;53.30;;;;;;5053701;28;20052;-46
2023/01/05 01:22:13;;;;;;;20.88;3.75;;;14.60;53.40;;;;;;5047538;28;20416;-47
2023/01/05 01:24:42;;;;;;;17.60;3.08;;;14.60;53.40;;;;;;5041060;28;20511;-47
2023/01/05 01:27:09;;;;;;;14.77;3.00;;;14.60;53.40;;;;;;5042637;28;20401;-49
2023/01/05 01:29:36;;;;;;;18.48;2.72;;;14.60;53.40;;;;;;5045741;28;20512;-45
2023/01/05 01:32:04;;;;;;;14.88;2.88;;;14.60;53.40;;;;;;5052937;28;20377;-48
2023/01/05 01:34:31;;;;;;;21.05;3.33;;;14.60;53.50;;;;;;5043998;28;20057;-45
2023/01/05 01:36:59;;;;;;;20.63;3.08;;;14.60;53.40;;;;;;5041088;28;20064;-48
2023/01/05 01:39:26;;;;;;;22.98;4.15;;;14.60;53.30;;;;;;5050401;28;20060;-47
2023/01/05 01:41:54;;;;;;;16.40;2.97;;;14.50;53.20;;;;;;5040600;28;20056;-44
2023/01/05 01:44:54;;;;;;;29.05;4.25;;;14.60;53.40;;;;;;5041340;28;20048;-46
2023/01/05 01:47:28;;;;;;;18.58;3.65;;;14.50;53.30;;;;;;5048707;28;20049;-48
2023/01/05 01:49:57;;;;;;;17.92;2.80;;;14.60;53.50;;;;;;5038253;28;20064;-46
2023/01/05 01:52:27;;;;;;;16.17;3.30;;;14.60;53.50;;;;;;5039701;28;20060;-49
2023/01/05 01:54:55;;;;;;;17.08;3.35;;;14.50;53.50;;;;;;5039165;28;20489;-47
2023/01/05 01:57:28;;;;;;;21.65;3.13;;;14.50;53.50;;;;;;5048301;28;20531;-44
2023/01/05 01:59:56;;;;;;;21.63;3.53;;;14.50;53.50;;;;;;5038582;28;20501;-47
2023/01/05 02:02:24;;;;;;;21.50;3.20;;;14.50;53.50;;;;;;5039167;28;20045;-47
2023/01/05 02:04:51;;;;;;;20.77;3.55;;;14.50;53.50;;;;;;5037808;28;20054;-48
2023/01/05 02:07:19;;;;;;;21.52;3.45;;;14.50;53.70;;;;;;5050122;28;20060;-46
2023/01/05 02:09:46;;;;;;;24.00;3.58;;;14.50;53.60;;;;;;5050814;28;20424;-44
2023/01/05 02:12:27;;;;;;;20.40;3.58;;;14.50;53.60;;;;;;5044194;28;20075;-46
2023/01/05 02:15:08;;;;;;;16.33;3.13;;;14.50;53.70;;;;;;5051063;28;20048;-43
2023/01/05 02:17:45;;;;;;;21.58;3.53;;;14.50;53.70;;;;;;5055616;28;20048;-48
2023/01/05 02:20:32;;;;;;;18.10;3.35;;;14.50;53.80;;;;;;5051448;28;20497;-45
2023/01/05 02:23:31;;;;;;;25.65;3.95;;;14.40;53.80;;;;;;5047296;28;20456;-46
2023/01/05 02:26:48;;;;;;;16.58;3.92;;;14.40;53.70;;;;;;5049576;28;21991;-42
2023/01/05 02:29:50;;;;;;;25.55;3.60;;;14.50;53.80;;;;;;4977572;28;21650;-51
2023/01/05 02:32:22;;;;;;;21.42;3.75;;;14.40;53.80;;;;;;5045871;28;20049;-47
2023/01/05 02:35:00;;;;;;;21.50;3.55;;;14.40;53.90;;;;;;5046743;28;20056;-45
2023/01/05 02:37:32;;;;;;;26.38;3.63;;;14.40;54.00;;;;;;5044249;28;20067;-48
2023/01/05 02:40:05;;;;;;;27.27;4.40;;;14.40;54.10;;;;;;5049493;28;20527;-46
2023/01/05 02:42:35;;;;;;;22.15;4.07;;;14.30;54.00;;;;;;5053409;28;20404;-47
2023/01/05 02:45:05;;;;;;;29.77;3.92;;;14.30;54.10;;;;;;5053011;28;20059;-47
2023/01/05 02:47:41;;;;;;;25.50;3.90;;;14.30;54.20;;;;;;5044577;28;20052;-45
2023/01/05 02:50:15;;;;;;;23.88;4.35;;;14.30;54.30;;;;;;5050901;28;20061;-44
2023/01/05 02:52:47;;;;;;;23.00;3.55;;;14.30;54.30;;;;;;5048705;28;20052;-54
2023/01/05 02:55:19;;;;;;;21.02;3.88;;;14.30;54.20;;;;;;5042968;28;20056;-45
2023/01/05 02:57:50;;;;;;;20.13;3.22;;;14.30;54.20;;;;;;5047628;28;20049;-48
2023/01/05 03:00:24;;;;;;;19.33;3.33;;;14.40;54.30;;;;;;5049192;28;20512;-45
2023/01/05 03:02:56;;;;;;;18.80;3.35;;;14.30;54.20;;;;;;5058307;28;20404;-45
2023/01/05 03:05:29;;;;;;;18.38;2.92;;;14.30;54.30;;;;;;5046607;28;20493;-44
2023/01/05 03:08:05;;;;;;;29.73;3.95;;;14.30;54.30;;;;;;5051494;28;20052;-46
2023/01/05 03:16:08;;;;;;;22.27;3.38;;;14.30;54.40;;;;;;5057254;28;20060;-48
2023/01/05 03:19:34;;;;;;;24.15;3.88;;;14.30;54.40;;;;;;5053346;28;20052;-53
2023/01/05 03:21:26;;;;;;;23.20;3.13;;;14.30;54.60;;;;;;5045731;28;20075;-44
2023/01/05 03:38:00;;;;;;;22.15;3.25;;;14.20;54.30;;;;;;5048216;28;20071;-46
2023/01/05 03:40:30;;;;;;;20.85;3.58;;;14.20;54.40;;;;;;5041634;28;20079;-46
2023/01/05 03:42:58;;;;;;;24.33;4.22;;;14.20;54.50;;;;;;5041718;28;20053;-42
2023/01/05 03:45:34;;;;;;;20.95;3.65;;;14.20;54.50;;;;;;5053583;28;20436;-46
2023/01/05 03:48:01;;;;;;;22.85;4.00;;;14.20;54.50;;;;;;5042198;28;20063;-43
2023/01/05 03:50:30;;;;;;;19.40;3.42;;;14.20;54.50;;;;;;5043435;28;20441;-46
2023/01/05 03:52:57;;;;;;;24.52;3.28;;;14.20;54.60;;;;;;5053907;28;20048;-45
2023/01/05 03:55:24;;;;;;;21.08;3.20;;;14.20;54.60;;;;;;5044076;28;20049;-45
2023/01/05 03:57:51;;;;;;;32.72;3.92;;;14.20;54.60;;;;;;5048497;28;20057;-45
2023/01/05 04:00:19;;;;;;;20.10;3.05;;;14.20;54.60;;;;;;5051061;28;20492;-46
2023/01/05 04:02:46;;;;;;;20.15;3.38;;;14.20;54.60;;;;;;5044700;28;20501;-48
2023/01/05 04:05:14;;;;;;;14.40;2.67;;;14.20;54.70;;;;;;5049667;28;20056;-49
2023/01/05 04:07:42;;;;;;;23.70;4.07;;;14.20;54.70;;;;;;5056739;28;20049;-46
2023/01/05 04:10:10;;;;;;;20.42;3.72;;;14.20;54.60;;;;;;5053715;28;20052;-47
2023/01/05 04:12:37;;;;;;;31.60;3.90;;;14.20;54.70;;;;;;5046329;28;20045;-48
2023/01/05 04:15:05;;;;;;;17.55;3.40;;;14.20;54.80;;;;;;5057627;28;20059;-46
2023/01/05 04:17:33;;;;;;;25.50;3.88;;;14.20;54.70;;;;;;5051430;28;20056;-42
2023/01/05 04:20:00;;;;;;;20.27;3.53;;;14.20;54.80;;;;;;5052593;28;20491;-45
2023/01/05 04:22:27;;;;;;;27.92;4.55;;;14.20;54.80;;;;;;5052232;28;20056;-47
2023/01/05 04:24:56;;;;;;;23.23;3.55;;;14.20;54.80;;;;;;5055976;28;20297;-44
2023/01/05 04:27:23;;;;;;;21.20;3.85;;;14.20;54.80;;;;;;5041138;28;20501;-45
2023/01/05 04:29:50;;;;;;;21.77;3.67;;;14.20;54.80;;;;;;5053734;28;20059;-55
2023/01/05 04:32:18;;;;;;;19.88;3.70;;;14.20;54.80;;;;;;5058581;28;20075;-44
2023/01/05 04:34:45;;;;;;;28.38;3.67;;;14.10;54.70;;;;;;5059731;28;20048;-45
2023/01/05 04:37:12;;;;;;;26.75;4.55;;;14.10;54.70;;;;;;5047746;28;20535;-45
2023/01/05 04:39:39;;;;;;;24.88;3.85;;;14.10;54.60;;;;;;5058540;28;20064;-44
2023/01/05 04:42:08;;;;;;;16.67;2.83;;;14.10;54.70;;;;;;5059389;28;20052;-49
2023/01/05 04:44:35;;;;;;;20.38;3.45;;;14.10;54.90;;;;;;5053908;28;20057;-47
2023/01/05 04:47:02;;;;;;;22.42;4.03;;;14.10;55.10;;;;;;5049595;28;20052;-46
2023/01/05 04:49:30;;;;;;;28.45;4.80;;;14.10;55.00;;;;;;5050463;28;20488;-46
2023/01/05 04:51:57;;;;;;;22.25;3.78;;;14.10;55.00;;;;;;5053972;28;20061;-45
2023/01/05 04:54:24;;;;;;;28.35;4.25;;;14.10;54.90;;;;;;5048426;28;20052;-46
2023/01/05 04:56:51;;;;;;;24.75;4.28;;;14.10;55.00;;;;;;5055723;28;20068;-45
2023/01/05 04:59:20;;;;;;;30.70;3.80;;;14.10;55.00;;;;;;5055197;28;20060;-46
2023/01/05 05:01:47;;;;;;;24.08;3.22;;;14.10;54.90;;;;;;5053387;28;21030;-45
2023/01/05 05:04:14;;;;;;;14.57;2.92;;;14.10;55.00;;;;;;5049070;28;20060;-43
2023/01/05 05:06:42;;;;;;;27.10;4.28;;;14.10;55.60;;;;;;5058433;28;20064;-44
2023/01/05 05:09:09;;;;;;;19.23;3.58;;;14.10;55.00;;;;;;5050367;28;20056;-46
2023/01/05 05:11:36;;;;;;;22.90;3.63;;;14.00;55.00;;;;;;5050996;28;20067;-44
2023/01/05 05:14:03;;;;;;;27.00;4.95;;;14.10;55.10;;;;;;5043213;28;20493;-49
2023/01/05 05:16:32;;;;;;;25.90;3.92;;;14.10;55.10;;;;;;5038719;28;20057;-45
2023/01/05 05:18:59;;;;;;;18.08;3.75;;;14.10;55.10;;;;;;5049828;28;20053;-45
2023/01/05 05:21:26;;;;;;;24.05;4.32;;;14.10;55.20;;;;;;5042893;28;20067;-46
2023/01/05 05:23:54;;;;;;;23.80;3.55;;;14.10;55.20;;;;;;5049441;28;20583;-45
2023/01/05 05:26:21;;;;;;;25.83;4.32;;;14.10;55.20;;;;;;5046219;28;20053;-43
2023/01/05 05:28:48;;;;;;;26.80;4.63;;;14.10;55.10;;;;;;5044014;28;20065;-55
2023/01/05 05:31:15;;;;;;;25.83;3.47;;;14.10;55.20;;;;;;5037267;28;20052;-46
2023/01/05 05:33:44;;;;;;;27.35;4.65;;;14.10;55.20;;;;;;5039032;28;20496;-46
2023/01/05 05:36:12;;;;;;;29.90;4.47;;;14.10;55.20;;;;;;5026707;28;20056;-44
2023/01/05 05:38:39;;;;;;;25.52;4.35;;;14.10;55.30;;;;;;5031156;28;20052;-46
2023/01/05 05:41:06;;;;;;;18.67;3.47;;;14.10;55.30;;;;;;5048365;28;20053;-48
2023/01/05 05:43:34;;;;;;;19.10;3.47;;;14.10;55.30;;;;;;5033286;28;20060;-46
2023/01/05 05:46:01;;;;;;;24.05;4.10;;;14.10;55.30;;;;;;5045097;28;20057;-47
2023/01/05 05:48:28;;;;;;;26.58;4.85;;;14.10;55.80;;;;;;5038350;28;20484;-45
2023/01/05 05:50:57;;;;;;;27.02;3.83;;;14.10;55.30;;;;;;5054577;28;20055;-48
2023/01/05 05:53:24;;;;;;;30.45;3.95;;;14.10;55.30;;;;;;5050666;28;20059;-46
2023/01/05 05:55:52;;;;;;;27.90;5.57;;;14.10;55.40;;;;;;5037931;28;20061;-44
2023/01/05 05:58:20;;;;;;;26.67;4.30;;;14.10;55.40;;;;;;5028885;28;20061;-43
2023/01/05 06:00:47;;;;;;;23.40;3.47;;;14.10;55.40;;;;;;5031910;28;20061;-45
2023/01/05 06:03:14;;;;;;;28.83;4.68;;;14.10;55.50;;;;;;5045982;28;20057;-45
2023/01/05 06:05:42;;;;;;;21.92;3.90;;;14.10;55.60;;;;;;5034994;28;20385;-47
2023/01/05 06:08:10;;;;;;;24.23;3.83;;;14.10;55.80;;;;;;5033653;28;20488;-44
2023/01/05 06:10:37;;;;;;;26.40;4.32;;;14.10;56.00;;;;;;5039491;28;20060;-44
2023/01/05 06:13:05;;;;;;;26.05;4.63;;;14.10;56.10;;;;;;5041322;28;20608;-46
2023/01/05 06:15:32;;;;;;;28.75;4.65;;;14.00;56.10;;;;;;5052364;28;20045;-46
2023/01/05 06:17:59;;;;;;;23.98;4.15;;;14.00;56.10;;;;;;5052171;28;20052;-47
2023/01/05 06:20:26;;;;;;;37.00;5.05;;;14.00;56.10;;;;;;5047043;28;20049;-45
2023/01/05 06:22:54;;;;;;;31.80;4.57;;;14.00;56.10;;;;;;5050475;28;20049;-44
2023/01/05 06:25:22;;;;;;;31.25;4.63;;;14.00;56.10;;;;;;5054825;28;20045;-43
2023/01/05 06:27:49;;;;;;;24.42;4.20;;;14.00;56.00;;;;;;5045038;28;20052;-48
2023/01/05 06:30:17;;;;;;;31.15;4.85;;;14.00;56.00;;;;;;5053194;28;20044;-47
2023/01/05 06:32:44;;;;;;;29.98;4.63;;;13.90;56.00;;;;;;5060022;28;20059;-47
2023/01/05 06:35:11;;;;;;;24.23;3.92;;;14.00;56.00;;;;;;5054233;28;20057;-48
2023/01/05 06:37:39;;;;;;;29.35;4.53;;;14.00;56.00;;;;;;5052753;28;20056;-42
2023/01/05 06:40:08;;;;;;;22.83;3.72;;;14.00;56.00;;;;;;5038316;28;20508;-47
2023/01/05 06:42:37;;;;;;;21.10;3.83;;;14.00;56.10;;;;;;5043729;28;20063;-45
2023/01/05 06:45:05;;;;;;;23.38;3.88;;;14.00;56.00;;;;;;5046199;28;20053;-46
2023/01/05 06:47:33;;;;;;;29.58;4.18;;;14.00;56.00;;;;;;5048442;28;20586;-44
2023/01/05 06:50:01;;;;;;;35.33;5.38;;;14.00;55.90;;;;;;5051931;28;20065;-43
2023/01/05 06:52:29;;;;;;;21.77;3.50;;;14.00;55.90;;;;;;5048226;28;20465;-47
2023/01/05 06:54:59;;;;;;;21.27;3.55;;;14.10;55.90;;;;;;5046497;28;20079;-47
2023/01/05 06:57:27;;;;;;;20.90;4.32;;;14.00;55.80;;;;;;5045866;28;20049;-46
2023/01/05 06:59:55;;;;;;;25.35;4.25;;;14.10;55.80;;;;;;5046718;28;20049;-44
2023/01/05 07:02:22;;;;;;;27.02;3.80;;;14.00;55.80;;;;;;5048703;28;20367;-47
2023/01/05 07:04:49;;;;;;;24.00;4.22;;;14.10;55.90;;;;;;5051885;28;20366;-44
2023/01/05 07:07:17;;;;;;;20.58;3.70;;;14.10;56.00;;;;;;5053805;28;20049;-46
2023/01/05 07:09:48;;;;;;;26.65;4.20;;;14.00;56.40;;;;;;5047539;28;20505;-45
2023/01/05 07:12:15;;;;;;;20.98;3.90;;;14.00;56.10;;;;;;5044756;28;20045;-48
2023/01/05 07:14:44;;;;;;;29.15;4.53;;;14.10;56.10;;;;;;5042367;28;20045;-47
2023/01/05 07:17:13;;;;;;;24.88;4.18;;;14.00;56.00;;;;;;5043234;28;20048;-48
2023/01/05 07:19:40;;;;;;;23.75;4.38;;;14.00;56.00;;;;;;5045990;28;20048;-44
2023/01/05 07:22:08;;;;;;;31.80;5.18;;;14.10;56.10;;;;;;5052041;28;20048;-47
2023/01/05 07:24:35;;;;;;;42.08;5.68;;;14.00;56.00;;;;;;5053846;28;20053;-48
2023/01/05 07:27:03;;;;;;;32.13;4.55;;;14.00;55.90;;;;;;5044671;28;20130;-47
2023/01/05 07:29:30;;;;;;;24.35;4.35;;;14.00;55.90;;;;;;5049707;28;20489;-46
2023/01/05 07:31:57;;;;;;;24.52;4.28;;;14.00;56.00;;;;;;5054286;28;20067;-44
2023/01/05 07:34:26;;;;;;;24.73;4.60;;;14.00;56.00;;;;;;5045320;28;20049;-45
2023/01/05 07:36:53;;;;;;;32.33;4.43;;;14.00;56.10;;;;;;5059946;28;20686;-47
2023/01/05 07:39:20;;;;;;;22.15;3.72;;;14.00;56.00;;;;;;5051862;28;20405;-46
2023/01/05 07:41:47;;;;;;;24.30;5.00;;;14.00;56.00;;;;;;5052252;28;20049;-44
2023/01/05 07:44:15;;;;;;;26.20;4.13;;;14.00;56.10;;;;;;5049118;28;20048;-46
2023/01/05 07:46:42;;;;;;;23.88;4.60;;;14.00;56.00;;;;;;5047523;28;20056;-44
2023/01/05 07:49:09;;;;;;;30.13;4.25;;;14.00;56.50;;;;;;5053085;28;20052;-45
2023/01/05 07:51:38;;;;;;;27.52;4.28;;;14.00;56.00;;;;;;5055089;28;20403;-48
2023/01/05 07:54:05;;;;;;;24.70;4.22;;;14.00;56.00;;;;;;5049696;28;20488;-50
2023/01/05 07:56:32;;;;;;;31.80;4.88;;;14.00;56.00;;;;;;5060332;28;20052;-45
2023/01/05 07:59:00;;;;;;;30.45;4.80;;;14.00;56.10;;;;;;5050387;28;20060;-48
2023/01/05 08:01:28;;;;;;;36.42;5.00;;;14.00;56.00;;;;;;5050674;28;20055;-44
2023/01/05 08:03:55;;;;;;;26.00;4.35;;;14.00;56.10;;;;;;5053325;28;20060;-44
2023/01/05 08:06:22;;;;;;;28.08;4.50;;;14.00;56.10;;;;;;5056512;28;20064;-49
2023/01/05 08:08:51;;;;;;;23.15;4.32;;;14.00;56.10;;;;;;5055291;28;20055;-49
2023/01/05 08:11:20;;;;;;;28.13;4.97;;;14.00;56.10;;;;;;5051229;28;20055;-45
2023/01/05 08:13:58;;;;;;;27.58;5.53;;;14.00;56.10;;;;;;5041409;28;20049;-44
2023/01/05 08:16:26;;;;;;;27.45;4.30;;;14.00;56.10;;;;;;5044177;28;20045;-46
2023/01/05 08:18:53;;;;;;;27.02;4.28;;;14.00;56.10;;;;;;5050710;28;20067;-46
2023/01/05 08:21:21;;;;;;;28.98;5.13;;;14.00;56.10;;;;;;5051193;28;20056;-48
2023/01/05 08:23:49;;;;;;;37.85;5.45;;;14.10;56.20;;;;;;5030725;28;20060;-47
2023/01/05 08:26:19;;;;;;;25.08;4.28;;;14.00;56.10;;;;;;5040623;28;20049;-46
2023/01/05 08:28:46;;;;;;;26.35;4.53;;;14.00;56.10;;;;;;5044437;28;20388;-47
2023/01/05 08:31:16;;;;;;;27.95;4.65;;;14.00;56.10;;;;;;5036046;28;20709;-45
2023/01/05 08:33:43;;;;;;;15.27;3.63;;;14.10;56.20;;;;;;5059437;28;20053;-43
2023/01/05 08:36:12;;;;;;;31.25;4.63;;;14.10;56.20;;;;;;5040371;28;20053;-46
2023/01/05 08:38:46;;;;;;;31.73;5.15;;;14.10;56.30;;;;;;5052717;28;20045;-44
2023/01/05 08:41:17;;;;;;;36.28;4.78;;;14.00;56.20;;;;;;5042172;28;20481;-44
2023/01/05 08:43:50;;;;;;;22.25;3.88;;;14.00;56.20;;;;;;5039130;28;20503;-43
2023/01/05 08:46:17;;;;;;;32.78;4.57;;;14.10;56.30;;;;;;5053161;28;20064;-47
2023/01/05 08:48:48;;;;;;;28.52;5.35;;;14.10;56.30;;;;;;5047893;28;20048;-47
2023/01/05 08:51:15;;;;;;;23.30;5.18;;;14.10;56.40;;;;;;5046555;28;20056;-45
2023/01/05 08:53:42;;;;;;;26.58;4.70;;;14.10;56.40;;;;;;5041443;28;20468;-48
2023/01/05 08:56:11;;;;;;;33.85;4.82;;;14.10;56.40;;;;;;5051711;28;20040;-45
2023/01/05 08:58:40;;;;;;;25.88;4.97;;;14.10;56.40;;;;;;5008960;28;20046;-44
2023/01/05 09:01:08;;;;;;;29.35;4.63;;;14.10;56.30;;;;;;5043158;28;20053;-45
2023/01/05 09:03:36;;;;;;;31.08;4.45;;;14.10;56.30;;;;;;5042275;28;20513;-46
2023/01/05 09:06:04;;;;;;;23.92;4.10;;;14.10;56.30;;;;;;5046200;28;20053;-47
2023/01/05 09:08:34;;;;;;;27.88;4.85;;;14.10;56.30;;;;;;5043035;28;20053;-50
2023/01/05 09:11:08;;;;;;;26.65;4.72;;;14.10;56.30;;;;;;5034769;28;21006;-47
2023/01/05 09:13:36;;;;;;;24.08;4.85;;;14.10;56.30;;;;;;5037050;28;20049;-49
2023/01/05 09:16:10;;;;;;;26.23;4.47;;;14.20;56.20;;;;;;5046720;28;20401;-45
2023/01/05 09:18:39;;;;;;;39.97;5.00;;;14.20;56.10;;;;;;5047111;28;20061;-43
2023/01/05 09:21:07;;;;;;;30.50;4.47;;;14.20;56.50;;;;;;5051782;28;20056;-46
2023/01/05 09:23:35;;;;;;;36.75;5.70;;;14.20;56.10;;;;;;5050382;28;20390;-43
2023/01/05 09:26:04;;;;;;;27.90;5.43;;;14.10;55.90;;;;;;5034882;28;20057;-45
2023/01/05 09:28:31;;;;;;;28.42;4.60;;;14.20;56.00;;;;;;5041398;28;20414;-46
2023/01/05 09:30:59;;;;;;;29.25;4.95;;;14.20;56.00;;;;;;5036100;28;20060;-49
2023/01/05 09:33:27;;;;;;;28.02;4.90;;;14.20;55.90;;;;;;5042012;28;20633;-48
2023/01/05 09:35:55;;;;;;;34.67;5.82;;;14.20;55.90;;;;;;5040358;28;20064;-44
2023/01/05 09:38:22;;;;;;;30.10;4.90;;;14.20;55.90;;;;;;5042402;28;20063;-45
2023/01/05 09:40:51;;;;;;;34.15;5.45;;;14.20;56.00;;;;;;5046551;28;20052;-48
2023/01/05 09:43:25;;;;;;;31.25;5.68;;;14.20;55.90;;;;;;5043214;28;20057;-44
2023/01/05 09:45:53;;;;;;;36.30;5.18;;;14.20;55.90;;;;;;5046815;28;20507;-45
2023/01/05 09:48:21;;;;;;;53.17;8.15;;;14.20;55.90;;;;;;5030023;28;20049;-43
2023/01/05 09:50:51;;;;;;;41.40;6.15;;;14.20;55.90;;;;;;5039248;28;20485;-45
2023/01/05 09:53:25;;;;;;;38.70;5.25;;;14.20;56.00;;;;;;5036619;28;20060;-44
2023/01/05 09:55:54;;;;;;;26.88;4.35;;;14.20;56.00;;;;;;5043380;28;20404;-45
2023/01/05 09:58:24;;;;;;;35.15;5.85;;;14.20;56.00;;;;;;5040029;28;20053;-45
2023/01/05 10:01:04;;;;;;;27.35;4.85;;;14.20;56.10;;;;;;5044592;28;20524;-44
2023/01/05 10:03:32;;;;;;;35.95;5.35;;;14.30;56.10;;;;;;5042492;28;20405;-47
2023/01/05 10:06:01;;;;;;;34.72;5.72;;;14.30;56.10;;;;;;5034717;28;20436;-45
2023/01/05 10:08:35;;;;;;;52.00;6.32;;;14.30;55.90;;;;;;5034683;28;20560;-45
2023/01/05 10:13:59;;;;;;;30.58;5.68;;;14.30;55.80;;;;;;5061852;28;20048;-47
2023/01/05 10:16:27;;;;;;;30.13;4.97;;;14.30;55.80;;;;;;5048117;28;20063;-46
2023/01/05 10:18:54;;;;;;;32.20;5.85;;;14.30;55.80;;;;;;5057582;28;20064;-47
2023/01/05 10:21:32;;;;;;;29.13;4.93;;;14.30;55.80;;;;;;5050386;28;20515;-45
2023/01/05 10:24:20;;;;;;;38.08;5.28;;;14.30;55.90;;;;;;5055719;28;20068;-48
2023/01/05 10:26:53;;;;;;;35.20;5.43;;;14.30;55.80;;;;;;5052106;28;20056;-49
2023/01/05 10:29:27;;;;;;;26.83;5.32;;;14.30;55.80;;;;;;5050965;28;20063;-47
2023/01/05 10:31:59;;;;;;;37.53;6.20;;;14.30;55.90;;;;;;5057003;28;21452;-46
2023/01/05 10:34:48;;;;;;;32.63;5.65;;;14.30;55.80;;;;;;5047669;28;20052;-46
2023/01/05 10:37:45;;;;;;;38.40;6.00;;;14.40;55.80;;;;;;5053423;28;20052;-49
2023/01/05 10:40:23;;;;;;;35.35;5.95;;;14.40;55.80;;;;;;5037898;28;20056;-46
2023/01/05 10:43:02;;;;;;;31.50;5.03;;;14.40;55.80;;;;;;5046566;28;20052;-47
2023/01/05 10:45:31;;;;;;;27.45;5.18;;;14.40;55.80;;;;;;5054686;28;20469;-45
2023/01/05 10:47:59;;;;;;;25.85;4.68;;;14.40;55.70;;;;;;5051054;28;20064;-46
2023/01/05 10:50:36;;;;;;;39.65;6.43;;;14.40;55.70;;;;;;5046177;28;20056;-45
2023/01/05 10:53:10;;;;;;;33.80;5.00;;;14.40;55.60;;;;;;5054886;28;20072;-48
2023/01/05 10:55:47;;;;;;;32.03;4.80;;;14.40;55.60;;;;;;5051456;28;20049;-47
2023/01/05 10:58:22;;;;;;;37.08;5.88;;;14.40;55.50;;;;;;5050889;28;20408;-48
2023/01/05 11:00:51;;;;;;;33.60;5.20;;;14.40;55.50;;;;;;5048385;28;20056;-45
2023/01/05 11:03:22;;;;;;;33.55;4.72;;;14.40;55.30;;;;;;5053283;28;20056;-48
2023/01/05 11:05:49;;;;;;;37.83;6.90;;;14.40;55.40;;;;;;5053899;28;20481;-43
2023/01/05 11:08:20;;;;;;;34.17;5.78;;;14.40;55.30;;;;;;5056521;28;20511;-48
2023/01/05 11:10:52;;;;;;;33.38;4.95;;;14.40;55.20;;;;;;5055285;28;20049;-47
2023/01/05 11:13:29;;;;;;;29.10;4.88;;;14.40;55.20;;;;;;5031797;28;20056;-46
2023/01/05 11:15:59;;;;;;;37.10;5.32;;;14.40;55.20;;;;;;5041728;28;20053;-45
2023/01/05 11:18:33;;;;;;;26.10;4.88;;;14.40;55.20;;;;;;5029263;28;20064;-47
2023/01/05 11:21:08;;;;;;;;;;;14.40;54.90;;;;;;5025813;28;20049;-48
2023/01/05 11:23:39;;;;;;;29.00;4.43;;;14.50;55.00;;;;;;5028361;28;19925;-44
2023/01/05 11:26:27;;;;;;;37.83;5.70;;;14.50;54.80;;;;;;5031813;28;20057;-46
2023/01/05 11:28:59;;;;;;;23.80;4.72;;;14.50;54.60;;;;;;5034562;28;20416;-50
2023/01/05 11:31:28;;;;;;;31.02;5.00;;;14.50;54.60;;;;;;5044253;28;20060;-45
2023/01/05 11:33:59;;;;;;;26.83;4.82;;;14.50;55.20;;;;;;5031070;28;20061;-48
2023/01/05 11:36:27;;;;;;;27.52;5.10;;;14.40;54.50;;;;;;5041016;28;20056;-49
2023/01/05 11:38:57;;;;;;;31.80;4.95;;;14.40;54.40;;;;;;5037444;28;20049;-45
2023/01/05 11:41:25;;;;;;;26.70;4.38;;;14.50;54.60;;;;;;5039368;28;20052;-47
2023/01/05 11:43:54;;;;;;;20.13;4.18;;;14.40;54.50;;;;;;5040957;28;20071;-46
2023/01/05 11:46:22;;;;;;;27.40;3.97;;;14.40;54.50;;;;;;5038585;28;20083;-46
2023/01/05 11:48:54;;;;;;;31.58;5.07;;;14.40;54.40;;;;;;5032221;28;20052;-49
2023/01/05 11:51:34;;;;;;;28.00;4.97;;;14.40;54.30;;;;;;5037145;28;20048;-47
2023/01/05 11:54:04;;;;;;;28.05;4.68;;;14.50;54.70;;;;;;5027913;28;20049;-45
2023/01/05 11:56:31;;;;;;;26.83;4.03;;;14.40;54.10;;;;;;5029139;28;20412;-46
2023/01/05 11:58:58;;;;;;;21.60;4.38;;;14.50;54.20;;;;;;5046460;28;20053;-44
2023/01/05 12:01:41;;;;;;;28.58;4.32;;;14.50;54.10;;;;;;5032919;28;20049;-51
2023/01/05 12:04:38;;;;;;;36.83;5.20;;;14.50;53.70;;;;;;5040523;28;20506;-51
2023/01/05 12:07:20;;;;;;;18.85;3.78;;;14.50;53.70;;;;;;5039988;28;20052;-46
2023/01/05 12:09:58;;;;;;;23.10;4.40;;;14.50;53.70;;;;;;5029664;28;20394;-45
2023/01/05 12:12:40;;;;;;;27.98;4.90;;;14.50;53.90;;;;;;5047335;28;20420;-43
2023/01/05 12:15:42;;;;;;;24.05;5.18;;;14.50;53.70;;;;;;5041596;28;20064;-46
2023/01/05 12:18:26;;;;;;;23.08;3.72;;;14.50;53.90;;;;;;5039151;28;20049;-44
2023/01/05 12:20:59;;;;;;;28.00;4.60;;;14.60;54.00;;;;;;5038272;28;20057;-48
2023/01/05 12:23:49;;;;;;;33.10;4.18;;;14.60;53.80;;;;;;5047967;28;20068;-46
2023/01/05 12:26:25;;;;;;;26.20;4.55;;;14.60;53.50;;;;;;5039349;28;20055;-46
2023/01/05 12:29:12;;;;;;;25.30;5.40;;;14.70;53.80;;;;;;5053278;28;20045;-45
2023/01/05 12:31:50;;;;;;;17.45;3.28;;;14.60;53.60;;;;;;5052739;28;20055;-46
2023/01/05 12:34:42;;;;;;;22.73;4.35;;;14.70;53.60;;;;;;5045055;28;20052;-44
2023/01/05 12:37:24;;;;;;;24.13;4.53;;;14.70;53.60;;;;;;5028446;28;20408;-44
2023/01/05 12:40:14;;;;;;;29.52;4.90;;;14.70;53.60;;;;;;5040428;28;20056;-45
2023/01/05 12:42:57;;;;;;;30.20;4.60;;;14.70;53.30;;;;;;5046130;28;20064;-44
2023/01/05 12:45:55;;;;;;;23.07;4.23;;;14.70;53.10;;;;;;5048948;28;20068;-44
2023/01/05 12:48:28;;;;;;;27.63;4.75;;;14.70;53.20;;;;;;5038669;28;20049;-45
2023/01/05 12:51:03;;;;;;;18.30;3.80;;;14.70;53.20;;;;;;5042505;28;20513;-43
2023/01/05 12:53:42;;;;;;;21.73;3.67;;;14.70;53.30;;;;;;5050540;28;20064;-47
2023/01/05 12:56:17;;;;;;;21.35;3.45;;;14.70;53.30;;;;;;5041020;28;20067;-48
2023/01/05 12:58:51;;;;;;;22.80;5.13;;;14.70;53.30;;;;;;5041841;28;20056;-47
2023/01/05 13:01:23;;;;;;;28.10;4.53;;;14.70;53.20;;;;;;5055246;28;20420;-46
2023/01/05 13:03:57;;;;;;;21.63;4.60;;;14.70;53.30;;;;;;5045631;28;20052;-46
2023/01/05 13:06:26;;;;;;;24.98;4.13;;;14.70;53.20;;;;;;5043837;28;20493;-49
2023/01/05 13:08:57;;;;;;;23.25;3.95;;;14.70;53.30;;;;;;5047984;28;20049;-43
2023/01/05 13:11:29;;;;;;;25.35;4.47;;;14.70;53.40;;;;;;5043313;28;20044;-46
2023/01/05 13:14:03;;;;;;;20.20;4.32;;;14.70;53.30;;;;;;5048653;28;20056;-46
2023/01/05 13:16:37;;;;;;;25.02;3.90;;;14.70;53.30;;;;;;5047406;28;20045;-48
2023/01/05 13:19:06;;;;;;;;;;;14.70;53.10;;;;;;5037131;28;20056;-48
2023/01/05 13:21:36;;;;;;;21.50;4.07;;;14.80;53.20;;;;;;5044924;28;19928;-44
2023/01/05 13:24:09;;;;;;;20.73;3.83;;;14.80;52.90;;;;;;5035315;28;20071;-46
2023/01/05 13:26:37;;;;;;;21.75;3.97;;;14.80;52.60;;;;;;5042813;28;20488;-48
2023/01/05 13:29:06;;;;;;;20.10;4.15;;;14.80;52.60;;;;;;5053699;28;20056;-45
2023/01/05 13:32:04;;;;;;;19.25;3.45;;;14.80;52.60;;;;;;5044814;28;20057;-47